Time;durP1;ratioP1;P1;durP2;ratioP2;P2;SDS_P1;SDS_P2;PMS_P1;PMS_P2;Temp;Humidity;BMP_temperature;BMP_pressure;BME280_temperature;BME280_humidity;BME280_pressure;Samples;Min_cycle;Max_cycle;Signal;HPM_P1;HPM_P2
2023/11/22 00:01:25;;;;;;;11.77;4.80;;;1.60;99.90;1.20;101224.00;;;;4949727;28;116505;-69
2023/11/22 00:03:50;;;;;;;7.43;4.40;;;1.60;99.90;1.20;101225.00;;;;4952845;28;87472;-67
2023/11/22 00:06:16;;;;;;;9.17;4.57;;;1.60;99.90;1.20;101209.00;;;;4953602;28;109666;-68
2023/11/22 00:08:42;;;;;;;7.83;4.30;;;1.70;99.90;1.20;101210.00;;;;4951737;28;115941;-68
2023/11/22 00:11:07;;;;;;;8.00;4.73;;;1.50;99.90;1.20;101209.00;;;;4953694;28;115869;-68
2023/11/22 00:13:33;;;;;;;4.93;4.10;;;1.50;99.90;1.20;101221.00;;;;4953428;28;87763;-67
2023/11/22 00:15:59;;;;;;;5.73;4.00;;;1.50;99.90;1.20;101229.00;;;;4950194;28;87895;-67
2023/11/22 00:18:26;;;;;;;5.30;4.00;;;1.50;99.90;1.20;101208.00;;;;4949402;28;118306;-68
2023/11/22 00:20:51;;;;;;;4.53;3.50;;;1.50;99.90;1.20;101211.00;;;;4953647;28;88076;-68
2023/11/22 00:23:17;;;;;;;10.20;5.10;;;1.50;99.90;1.20;101211.00;;;;4951552;28;109321;-68
2023/11/22 00:25:42;;;;;;;5.03;4.20;;;1.60;99.90;1.20;101216.00;;;;4953833;28;107199;-68
2023/11/22 00:28:08;;;;;;;6.97;4.07;;;1.50;99.90;1.20;101217.00;;;;4953338;28;116393;-69
2023/11/22 00:30:34;;;;;;;6.07;3.93;;;1.50;99.90;1.20;101207.00;;;;4956402;28;88305;-69
2023/11/22 00:32:59;;;;;;;9.37;4.80;;;1.50;99.90;1.20;101210.00;;;;4948661;28;110296;-68
2023/11/22 00:35:25;;;;;;;6.37;4.70;;;1.50;99.90;1.20;101215.00;;;;4950151;28;88985;-70
2023/11/22 00:37:51;;;;;;;7.43;4.33;;;1.50;99.90;1.20;101217.00;;;;4951947;28;116348;-70
2023/11/22 00:40:16;;;;;;;5.93;3.87;;;1.40;99.90;1.20;101228.00;;;;4949592;28;106632;-68
2023/11/22 00:42:43;;;;;;;8.93;4.77;;;1.50;99.90;1.10;101227.00;;;;4948927;28;111394;-68
2023/11/22 00:45:09;;;;;;;6.07;4.40;;;1.40;99.90;1.10;101231.00;;;;4952725;28;87947;-68
2023/11/22 00:47:36;;;;;;;6.13;4.23;;;1.50;99.90;1.10;101236.00;;;;4950115;28;89630;-69
2023/11/22 00:50:04;;;;;;;5.67;3.83;;;1.40;99.90;1.10;101226.00;;;;4929803;28;101211;-68
2023/11/22 00:52:30;;;;;;;9.03;5.40;;;1.50;99.90;1.10;101228.00;;;;4949936;28;87355;-70
2023/11/22 00:54:56;;;;;;;8.53;4.47;;;1.40;99.90;1.10;101242.00;;;;4958084;28;87901;-68
2023/11/22 00:57:23;;;;;;;4.83;3.17;;;1.40;99.90;1.10;101246.00;;;;4952402;28;108490;-69
2023/11/22 00:59:48;;;;;;;10.13;3.80;;;1.40;99.90;1.10;101250.00;;;;4952928;28;88987;-69
2023/11/22 01:02:14;;;;;;;4.37;3.00;;;1.50;99.90;1.10;101256.00;;;;4952623;28;110565;-67
2023/11/22 01:04:40;;;;;;;6.23;3.90;;;1.40;99.90;1.10;101254.00;;;;4949497;28;88745;-68
2023/11/22 01:07:06;;;;;;;7.43;5.03;;;1.40;99.90;1.10;101257.00;;;;4948934;28;98037;-68
2023/11/22 01:09:32;;;;;;;5.73;3.90;;;1.40;99.90;1.10;101264.00;;;;4953138;28;88824;-70
2023/11/22 01:11:59;;;;;;;5.10;4.03;;;1.40;99.90;1.10;101262.00;;;;4953133;28;87949;-67
2023/11/22 01:14:28;;;;;;;6.83;3.87;;;1.40;99.90;1.10;101279.00;;;;4954310;28;87788;-69
2023/11/22 01:16:54;;;;;;;4.50;4.03;;;1.40;99.90;1.10;101275.00;;;;4956408;28;87134;-68
2023/11/22 01:19:20;;;;;;;8.40;4.00;;;1.40;99.90;1.10;101285.00;;;;4947756;28;115961;-67
2023/11/22 01:21:46;;;;;;;5.80;4.40;;;1.40;99.90;1.10;101283.00;;;;4951871;28;87985;-68
2023/11/22 01:24:12;;;;;;;5.70;3.90;;;1.40;99.90;1.10;101290.00;;;;4953577;28;98788;-68
2023/11/22 01:26:38;;;;;;;5.77;4.57;;;1.40;99.90;1.10;101285.00;;;;4952461;28;117064;-68
2023/11/22 01:29:04;;;;;;;3.40;2.73;;;1.40;99.90;1.10;101296.00;;;;4950408;28;88846;-68
2023/11/22 01:31:30;;;;;;;7.90;4.53;;;1.50;99.90;1.10;101300.00;;;;4955410;28;94443;-68
2023/11/22 01:33:55;;;;;;;5.20;3.77;;;1.40;99.90;1.10;101308.00;;;;4950315;28;108811;-69
2023/11/22 01:36:21;;;;;;;5.93;4.27;;;1.40;99.90;1.10;101313.00;;;;4950403;28;117070;-68
2023/11/22 01:38:47;;;;;;;6.33;3.83;;;1.40;99.90;1.10;101311.00;;;;4944858;28;115601;-67
2023/11/22 01:41:13;;;;;;;6.90;4.93;;;1.50;99.90;1.10;101303.00;;;;4954123;28;87136;-67
2023/11/22 01:43:41;;;;;;;10.07;4.50;;;1.40;99.90;1.10;101307.00;;;;4951742;28;88084;-69
2023/11/22 01:46:08;;;;;;;6.13;4.07;;;1.40;99.90;1.10;101305.00;;;;4948575;28;88627;-67
2023/11/22 01:48:35;;;;;;;4.93;3.97;;;1.30;99.90;1.10;101308.00;;;;4949367;28;102585;-68
2023/11/22 01:51:01;;;;;;;8.57;4.53;;;1.40;99.90;1.00;101302.00;;;;4948657;28;87776;-69
2023/11/22 01:53:27;;;;;;;6.00;3.83;;;1.30;99.90;1.10;101311.00;;;;4947768;28;109179;-69
2023/11/22 01:55:53;;;;;;;7.93;3.53;;;1.30;99.90;1.00;101308.00;;;;4950834;28;117572;-67
2023/11/22 01:58:23;;;;;;;7.57;4.37;;;1.50;99.90;1.00;101306.00;;;;4945649;28;117327;-67
2023/11/22 02:00:59;;;;;;;5.03;3.90;;;1.30;99.90;1.00;101297.00;;;;4954353;28;87930;-68
2023/11/22 02:03:25;;;;;;;3.93;3.30;;;1.30;99.90;1.00;101296.00;;;;4952166;28;98873;-66
2023/11/22 02:05:54;;;;;;;5.30;3.33;;;1.30;99.90;0.90;101291.00;;;;4950663;28;116379;-67
2023/11/22 02:08:19;;;;;;;5.97;4.77;;;1.20;99.90;0.90;101296.00;;;;4946092;28;88228;-67
2023/11/22 02:10:49;;;;;;;4.00;3.03;;;1.30;99.90;0.90;101288.00;;;;4951344;28;109840;-69
2023/11/22 02:13:14;;;;;;;6.20;4.63;;;1.20;99.90;0.80;101309.00;;;;4952278;28;89966;-67
2023/11/22 02:15:40;;;;;;;4.87;4.37;;;1.20;99.90;0.80;101302.00;;;;4944476;28;116918;-68
2023/11/22 02:18:06;;;;;;;5.63;3.97;;;1.10;99.90;0.80;101303.00;;;;4951710;28;115521;-69
2023/11/22 02:20:32;;;;;;;9.00;5.00;;;1.10;99.90;0.80;101311.00;;;;4946784;28;87921;-67
2023/11/22 02:23:08;;;;;;;7.70;3.80;;;1.10;99.90;0.70;101310.00;;;;4950298;28;89081;-67
2023/11/22 02:25:35;;;;;;;5.67;3.97;;;1.10;99.90;0.80;101326.00;;;;4946755;28;88543;-69
2023/11/22 02:28:02;;;;;;;5.50;3.93;;;1.20;99.90;0.80;101332.00;;;;4949770;28;88831;-68
2023/11/22 02:30:28;;;;;;;3.70;3.13;;;1.10;99.90;0.80;101333.00;;;;4947699;28;87068;-68
2023/11/22 02:32:54;;;;;;;4.23;3.73;;;1.20;99.90;0.80;101325.00;;;;4947829;28;108118;-69
2023/11/22 02:35:19;;;;;;;5.33;4.13;;;1.10;99.90;0.80;101330.00;;;;4949387;28;88675;-70
2023/11/22 02:37:47;;;;;;;7.63;4.10;;;1.10;99.90;0.80;101335.00;;;;4948967;28;89317;-69
2023/11/22 02:40:22;;;;;;;5.93;4.47;;;1.10;99.90;0.80;101335.00;;;;4948862;28;89315;-68
2023/11/22 02:42:49;;;;;;;5.17;4.00;;;1.20;99.90;0.80;101333.00;;;;4951716;28;109053;-71
2023/11/22 02:45:22;;;;;;;7.57;4.60;;;1.20;99.90;0.70;101324.00;;;;4946364;28;97715;-68
2023/11/22 02:47:49;;;;;;;6.13;4.87;;;1.10;99.90;0.70;101331.00;;;;4950365;28;87895;-68
2023/11/22 02:50:15;;;;;;;6.50;5.10;;;1.00;99.90;0.70;101324.00;;;;4952764;28;87837;-69
2023/11/22 02:52:42;;;;;;;7.47;4.67;;;1.10;99.90;0.70;101325.00;;;;4947274;28;88266;-68
2023/11/22 02:55:11;;;;;;;5.50;4.50;;;1.00;99.90;0.70;101333.00;;;;4951550;28;98008;-68
2023/11/22 02:57:39;;;;;;;8.77;5.70;;;1.10;99.90;0.70;101336.00;;;;4952087;28;87930;-68
2023/11/22 03:00:07;;;;;;;6.03;4.50;;;1.10;99.90;0.70;101333.00;;;;4950743;28;88318;-69
2023/11/22 03:02:34;;;;;;;8.97;5.20;;;1.10;99.90;0.70;101331.00;;;;4949687;28;88674;-68
2023/11/22 03:05:00;;;;;;;9.03;3.93;;;1.00;99.90;0.70;101343.00;;;;4950035;28;104496;-68
2023/11/22 03:07:26;;;;;;;8.63;5.03;;;1.00;99.90;0.70;101338.00;;;;4947879;28;118486;-69
2023/11/22 03:09:52;;;;;;;4.60;3.77;;;1.00;99.90;0.70;101362.00;;;;4949160;28;88096;-68
2023/11/22 03:15:06;;;;;;;6.37;4.50;;;1.10;99.90;0.70;101369.00;;;;4951848;28;118188;-68
2023/11/22 03:17:35;;;;;;;11.50;5.20;;;1.10;99.90;0.70;101370.00;;;;4958165;28;88916;-68
2023/11/22 03:20:00;;;;;;;8.03;4.63;;;1.10;99.90;0.70;101385.00;;;;4958248;28;87087;-66
2023/11/22 03:22:30;;;;;;;5.83;4.00;;;1.10;99.90;0.80;101382.00;;;;4955787;28;103033;-68
2023/11/22 03:24:58;;;;;;;8.97;4.70;;;1.00;99.90;0.80;101374.00;;;;4938490;28;89325;-67
2023/11/22 03:27:24;;;;;;;5.43;3.07;;;1.10;99.90;0.80;101389.00;;;;4957562;28;88976;-67
2023/11/22 03:29:49;;;;;;;4.30;3.90;;;1.20;99.90;0.80;101379.00;;;;4951241;28;87943;-67
2023/11/22 03:32:15;;;;;;;5.97;3.70;;;1.20;99.90;0.90;101398.00;;;;4962715;28;103441;-67
2023/11/22 03:34:41;;;;;;;5.83;4.27;;;1.20;99.90;0.90;101398.00;;;;4955266;28;88273;-67
2023/11/22 03:37:07;;;;;;;5.30;4.53;;;1.20;99.90;0.90;101403.00;;;;4955371;28;88040;-67
2023/11/22 03:39:32;;;;;;;6.27;4.67;;;1.30;99.90;0.90;101411.00;;;;4954435;28;87787;-69
2023/11/22 03:41:58;;;;;;;5.57;4.20;;;1.20;99.90;0.90;101421.00;;;;4954971;28;87900;-70
2023/11/22 03:44:24;;;;;;;7.30;5.83;;;1.20;99.90;1.00;101421.00;;;;4954996;28;104754;-67
2023/11/22 03:46:49;;;;;;;8.37;4.87;;;1.30;99.90;1.00;101428.00;;;;4954529;28;115484;-68
2023/11/22 03:49:15;;;;;;;8.03;5.37;;;1.30;99.90;1.00;101421.00;;;;4953981;28;87902;-67
2023/11/22 03:51:42;;;;;;;7.43;4.67;;;1.30;99.90;1.00;101429.00;;;;4962419;28;108039;-68
2023/11/22 03:54:09;;;;;;;6.47;4.67;;;1.30;99.90;1.00;101433.00;;;;4950141;28;108915;-70
2023/11/22 03:56:35;;;;;;;7.03;4.83;;;1.30;99.90;1.00;101442.00;;;;4942773;28;90471;-69
2023/11/22 03:59:01;;;;;;;10.43;4.10;;;1.30;99.90;1.00;101451.00;;;;4952704;28;110072;-68
2023/11/22 04:01:26;;;;;;;5.60;4.20;;;1.30;99.90;1.00;101452.00;;;;4951049;28;108185;-69
2023/11/22 04:03:53;;;;;;;4.70;3.67;;;1.30;99.90;0.90;101461.00;;;;4953782;28;116147;-70
2023/11/22 04:06:19;;;;;;;5.87;3.93;;;1.30;99.90;0.90;101463.00;;;;4954061;28;90087;-68
2023/11/22 04:08:46;;;;;;;5.17;4.00;;;1.20;99.90;0.90;101484.00;;;;4963832;28;110278;-68
2023/11/22 04:11:16;;;;;;;6.33;4.03;;;1.40;99.90;0.90;101490.00;;;;4950947;28;87877;-68
2023/11/22 04:13:42;;;;;;;10.07;4.20;;;1.20;99.90;0.90;101492.00;;;;4956565;28;88678;-68
2023/11/22 04:16:08;;;;;;;4.93;4.17;;;1.20;99.90;0.90;101505.00;;;;4953538;28;90102;-66
2023/11/22 04:18:40;;;;;;;5.00;3.67;;;1.30;99.90;0.90;101499.00;;;;4954605;28;87936;-67
2023/11/22 04:21:06;;;;;;;7.57;5.03;;;1.20;99.90;0.80;101512.00;;;;4958975;28;87659;-68
2023/11/22 04:23:32;;;;;;;8.37;4.27;;;1.20;99.90;0.80;101505.00;;;;4955320;28;88467;-68
2023/11/22 04:25:59;;;;;;;5.50;4.27;;;1.20;99.90;0.80;101515.00;;;;4953625;28;87766;-66
2023/11/22 04:28:25;;;;;;;6.17;4.60;;;1.20;99.90;0.80;101516.00;;;;4961667;28;87877;-68
2023/11/22 04:30:52;;;;;;;6.57;4.80;;;1.20;99.90;0.80;101521.00;;;;4955534;28;87496;-67
2023/11/22 04:33:19;;;;;;;8.93;4.60;;;1.10;99.90;0.80;101515.00;;;;4948766;28;89574;-69
2023/11/22 04:35:44;;;;;;;7.67;5.00;;;1.10;99.90;0.80;101504.00;;;;4938841;28;110027;-67
2023/11/22 04:38:10;;;;;;;9.33;5.83;;;1.10;99.90;0.80;101525.00;;;;4955094;28;101645;-67
2023/11/22 04:40:37;;;;;;;8.47;4.93;;;1.10;99.90;0.80;101522.00;;;;4956449;28;109573;-68
2023/11/22 04:43:02;;;;;;;8.70;5.80;;;1.10;99.90;0.70;101520.00;;;;4957387;28;88967;-66
2023/11/22 04:45:28;;;;;;;6.70;4.97;;;1.00;99.90;0.70;101510.00;;;;4956189;28;116245;-68
2023/11/22 04:47:56;;;;;;;8.07;5.83;;;1.00;99.90;0.60;101515.00;;;;4958616;28;109977;-67
2023/11/22 04:50:31;;;;;;;6.13;4.53;;;1.00;99.90;0.50;101524.00;;;;4954176;28;88299;-66
2023/11/22 04:52:57;;;;;;;8.20;5.30;;;1.00;99.90;0.50;101535.00;;;;4951347;28;116175;-69
2023/11/22 04:55:23;;;;;;;10.17;6.20;;;0.90;99.90;0.50;101533.00;;;;4955794;28;117241;-68
2023/11/22 04:57:49;;;;;;;13.27;6.37;;;0.80;99.90;0.40;101541.00;;;;4950877;28;87330;-68
2023/11/22 05:00:15;;;;;;;12.57;6.40;;;0.90;99.90;0.40;101540.00;;;;4956334;28;88941;-69
2023/11/22 05:02:41;;;;;;;9.07;5.73;;;0.70;99.90;0.40;101541.00;;;;4952981;28;108503;-68
2023/11/22 05:05:10;;;;;;;10.43;5.87;;;0.90;99.90;0.40;101552.00;;;;4962622;28;90079;-68
2023/11/22 05:07:36;;;;;;;10.03;5.27;;;0.70;99.90;0.30;101551.00;;;;4948701;28;89360;-68
2023/11/22 05:10:03;;;;;;;7.53;5.17;;;0.70;99.90;0.30;101543.00;;;;4952094;28;108265;-68
2023/11/22 05:12:29;;;;;;;10.50;6.40;;;0.70;99.90;0.30;101555.00;;;;4958141;28;88337;-70
2023/11/22 05:14:55;;;;;;;7.23;4.97;;;0.70;99.90;0.30;101570.00;;;;4953859;28;108354;-69
2023/11/22 05:17:20;;;;;;;7.43;5.60;;;0.70;99.90;0.20;101577.00;;;;4949324;28;110175;-67
2023/11/22 05:19:46;;;;;;;13.13;5.77;;;0.60;99.90;0.20;101564.00;;;;4950275;28;109079;-68
2023/11/22 05:22:12;;;;;;;8.00;5.90;;;0.70;99.90;0.20;101576.00;;;;4951172;28;115987;-68
2023/11/22 05:24:41;;;;;;;15.50;6.90;;;0.60;99.90;0.20;101580.00;;;;4959225;28;116839;-69
2023/11/22 05:27:08;;;;;;;7.97;6.00;;;0.60;99.90;0.20;101582.00;;;;4953068;28;87892;-69
2023/11/22 05:29:34;;;;;;;7.83;5.53;;;0.60;99.90;0.20;101570.00;;;;4953030;28;89001;-68
2023/11/22 05:32:00;;;;;;;8.43;5.87;;;0.60;99.90;0.20;101575.00;;;;4952476;28;111384;-69
2023/11/22 05:34:25;;;;;;;9.33;5.73;;;0.50;99.90;0.20;101568.00;;;;4956644;28;110172;-70
2023/11/22 05:36:52;;;;;;;10.23;6.23;;;0.50;99.90;0.10;101575.00;;;;4951228;28;107365;-69
2023/11/22 05:39:18;;;;;;;11.27;6.53;;;0.50;99.90;0.10;101575.00;;;;4957968;28;87671;-68
2023/11/22 05:41:44;;;;;;;13.47;6.37;;;0.40;99.90;0.00;101575.00;;;;4954235;28;106180;-69
2023/11/22 05:44:09;;;;;;;11.97;6.33;;;1.20;99.90;0.00;101577.00;;;;4960646;28;116541;-69
2023/11/22 05:46:35;;;;;;;9.03;6.00;;;0.40;99.90;0.00;101572.00;;;;4954615;28;109523;-69
2023/11/22 05:49:01;;;;;;;10.87;5.60;;;0.40;99.90;0.00;101568.00;;;;4952684;28;87870;-67
2023/11/22 05:51:27;;;;;;;6.50;5.30;;;0.70;99.90;0.00;101574.00;;;;4944145;28;118854;-68
2023/11/22 05:53:52;;;;;;;7.17;4.83;;;0.30;99.90;0.00;101573.00;;;;4943795;28;117363;-69
2023/11/22 05:56:18;;;;;;;10.37;6.07;;;0.30;99.90;0.00;101582.00;;;;4949852;28;98812;-70
2023/11/22 05:58:44;;;;;;;11.23;5.70;;;0.30;99.90;0.00;101583.00;;;;4951081;28;87982;-68
2023/11/22 06:01:13;;;;;;;9.77;6.80;;;0.30;99.90;-0.10;101581.00;;;;4952419;28;113925;-68
2023/11/22 06:03:40;;;;;;;10.37;6.17;;;0.30;99.90;-0.10;101588.00;;;;4950780;28;88651;-71
2023/11/22 06:06:06;;;;;;;9.63;5.77;;;0.30;99.90;-0.10;101615.00;;;;4952052;28;87938;-69
2023/11/22 06:08:32;;;;;;;9.13;6.77;;;0.40;99.90;-0.10;101606.00;;;;4955387;28;88209;-68
2023/11/22 06:11:01;;;;;;;11.23;7.43;;;0.30;99.90;-0.10;101604.00;;;;4951551;28;103999;-68
2023/11/22 06:13:27;;;;;;;9.63;5.40;;;0.30;99.90;-0.10;101601.00;;;;4956540;28;117676;-69
2023/11/22 06:15:53;;;;;;;9.70;6.27;;;0.20;99.90;-0.10;101613.00;;;;4951686;28;88014;-69
2023/11/22 06:18:18;;;;;;;11.17;5.67;;;0.30;99.90;-0.10;101619.00;;;;4950553;28;90489;-69
2023/11/22 06:20:47;;;;;;;12.70;6.83;;;0.30;99.90;0.00;101635.00;;;;4960951;28;118253;-70
2023/11/22 06:23:13;;;;;;;7.33;5.93;;;0.40;99.90;0.00;101640.00;;;;4953428;28;88078;-69
2023/11/22 06:25:41;;;;;;;8.80;5.80;;;0.30;99.90;0.00;101648.00;;;;4951969;28;87979;-68
2023/11/22 06:28:07;;;;;;;9.90;5.93;;;-0.40;99.90;0.00;101629.00;;;;4953864;28;88143;-68
2023/11/22 06:30:34;;;;;;;13.87;7.73;;;0.40;99.90;0.00;101643.00;;;;4956809;28;88454;-70
2023/11/22 06:33:00;;;;;;;16.00;6.37;;;0.40;99.90;0.00;101640.00;;;;4958615;28;88721;-69
2023/11/22 06:35:25;;;;;;;9.67;6.67;;;0.40;99.90;0.00;101644.00;;;;4955531;28;87161;-70
2023/11/22 06:37:51;;;;;;;10.40;6.27;;;0.30;99.90;-0.10;101646.00;;;;4953007;28;107769;-70
2023/11/22 06:40:23;;;;;;;7.57;5.40;;;0.30;99.90;-0.10;101662.00;;;;4959205;28;115497;-69
2023/11/22 06:42:48;;;;;;;11.13;6.63;;;0.30;99.90;-0.10;101691.00;;;;4954076;28;96951;-69
2023/11/22 06:45:15;;;;;;;12.87;7.30;;;0.30;99.90;-0.10;101690.00;;;;4956696;28;113142;-68
2023/11/22 06:47:42;;;;;;;11.00;6.43;;;0.30;99.90;-0.10;101707.00;;;;4952389;28;87674;-68
2023/11/22 06:50:09;;;;;;;7.33;5.60;;;0.30;99.90;-0.10;101696.00;;;;4956459;28;105503;-70
2023/11/22 06:52:39;;;;;;;12.27;6.40;;;0.20;99.90;-0.10;101693.00;;;;4961565;28;88159;-69
2023/11/22 06:55:07;;;;;;;11.37;6.83;;;0.20;99.90;-0.10;101696.00;;;;4956976;28;87698;-67
2023/11/22 06:57:36;;;;;;;10.97;5.67;;;0.20;99.90;-0.10;101690.00;;;;4953793;28;87799;-68
2023/11/22 07:00:09;;;;;;;13.13;7.13;;;0.20;99.90;-0.20;101688.00;;;;4953421;28;109612;-71
2023/11/22 07:02:36;;;;;;;8.60;5.63;;;0.30;99.90;-0.20;101674.00;;;;4956178;28;88066;-70
2023/11/22 07:05:03;;;;;;;7.40;5.13;;;0.20;99.90;-0.20;101682.00;;;;4954855;28;87979;-70
2023/11/22 07:07:29;;;;;;;7.73;5.57;;;0.20;99.90;-0.20;101674.00;;;;4953868;28;88677;-69
2023/11/22 07:09:59;;;;;;;11.47;7.47;;;0.20;99.90;-0.20;101681.00;;;;4951606;28;100677;-68
2023/11/22 07:12:27;;;;;;;24.30;14.13;;;0.10;99.90;-0.20;101678.00;;;;4954112;28;87886;-71
2023/11/22 07:14:53;;;;;;;28.03;20.03;;;0.10;99.90;-0.20;101666.00;;;;4950674;28;88350;-69
2023/11/22 07:17:19;;;;;;;28.33;19.43;;;0.20;99.90;-0.20;101667.00;;;;4949428;28;108295;-68
2023/11/22 07:19:48;;;;;;;24.67;16.07;;;0.10;99.90;-0.20;101689.00;;;;4956308;28;117559;-69
2023/11/22 07:22:19;;;;;;;43.63;34.13;;;0.20;99.90;-0.20;101686.00;;;;4955164;28;88997;-68
2023/11/22 07:24:47;;;;;;;14.03;9.67;;;0.10;99.90;-0.20;101682.00;;;;4952867;28;86933;-68
2023/11/22 07:27:14;;;;;;;10.87;8.53;;;0.20;99.90;-0.20;101703.00;;;;4952300;28;87679;-69
2023/11/22 07:29:41;;;;;;;12.43;8.93;;;0.20;99.90;-0.10;101711.00;;;;4952929;28;88940;-70
2023/11/22 07:32:08;;;;;;;16.07;9.00;;;0.10;99.90;-0.10;101711.00;;;;4955554;28;99449;-69
2023/11/22 07:34:35;;;;;;;9.73;6.03;;;0.20;99.90;-0.10;101706.00;;;;4954869;28;87781;-68
2023/11/22 07:37:01;;;;;;;10.00;6.53;;;0.20;99.90;-0.10;101714.00;;;;4953338;28;87821;-67
2023/11/22 07:39:27;;;;;;;14.03;6.33;;;0.30;99.90;-0.10;101724.00;;;;4948794;28;110112;-69
2023/11/22 07:41:54;;;;;;;7.57;6.77;;;0.20;99.90;0.00;101721.00;;;;4935520;28;106141;-67
2023/11/22 07:44:21;;;;;;;23.43;17.10;;;0.20;99.90;0.00;101732.00;;;;4956011;28;87964;-71
2023/11/22 07:46:47;;;;;;;10.17;8.03;;;0.30;99.90;0.00;101740.00;;;;4951210;28;87823;-70
2023/11/22 07:49:13;;;;;;;18.50;15.83;;;0.40;99.90;0.00;101748.00;;;;4948479;28;117751;-68
2023/11/22 07:51:40;;;;;;;7.60;5.87;;;0.40;99.90;0.00;101745.00;;;;4951434;28;88002;-69
2023/11/22 07:54:05;;;;;;;12.63;6.83;;;0.40;99.90;0.00;101753.00;;;;4950670;28;87723;-69
2023/11/22 07:56:32;;;;;;;17.33;7.13;;;0.40;99.90;0.10;101759.00;;;;4949404;28;89724;-68
2023/11/22 07:58:58;;;;;;;10.60;6.23;;;0.40;99.90;0.10;101769.00;;;;4953026;28;88564;-68
2023/11/22 08:01:25;;;;;;;9.33;6.03;;;0.40;99.90;0.10;101777.00;;;;4946445;28;117357;-70
2023/11/22 08:03:51;;;;;;;12.17;8.37;;;0.50;99.90;0.10;101793.00;;;;4951005;28;87663;-68
2023/11/22 08:06:17;;;;;;;10.40;6.23;;;0.50;99.90;0.10;101793.00;;;;4952572;28;88075;-70
2023/11/22 08:08:45;;;;;;;8.30;5.13;;;0.50;99.90;0.20;101785.00;;;;4953367;28;110456;-69
2023/11/22 08:11:14;;;;;;;9.60;5.17;;;0.50;99.90;0.20;101787.00;;;;4953528;28;88776;-69
2023/11/22 08:13:42;;;;;;;6.63;4.93;;;0.60;99.90;0.20;101782.00;;;;4953788;28;87232;-67
2023/11/22 08:16:09;;;;;;;15.40;9.87;;;0.60;99.90;0.20;101779.00;;;;4953110;28;87898;-68
2023/11/22 08:18:34;;;;;;;13.67;7.90;;;0.50;99.90;0.20;101788.00;;;;4956867;28;116143;-68
2023/11/22 08:21:00;;;;;;;6.73;5.53;;;0.70;99.90;0.20;101783.00;;;;4952106;28;100508;-69
2023/11/22 08:23:31;;;;;;;7.00;6.30;;;0.60;99.90;0.30;101784.00;;;;4950304;28;100464;-68
2023/11/22 08:25:59;;;;;;;12.30;6.07;;;0.60;99.90;0.30;101794.00;;;;4952471;28;87834;-69
2023/11/22 08:28:25;;;;;;;9.30;5.37;;;0.60;99.90;0.30;101785.00;;;;4953425;28;87805;-69
2023/11/22 08:30:52;;;;;;;7.20;6.50;;;0.60;99.90;0.40;101801.00;;;;4953830;28;88638;-68
2023/11/22 08:33:17;;;;;;;7.20;5.90;;;0.70;99.90;0.40;101798.00;;;;4947573;28;102078;-70
2023/11/22 08:35:43;;;;;;;8.17;6.00;;;0.70;99.90;0.40;101796.00;;;;4950319;28;99142;-69
2023/11/22 08:38:09;;;;;;;9.90;5.90;;;0.80;99.90;0.50;101788.00;;;;4952972;28;90630;-69
2023/11/22 08:40:37;;;;;;;11.17;5.67;;;0.90;99.90;0.50;101789.00;;;;4948365;28;88329;-68
2023/11/22 08:43:04;;;;;;;9.03;5.00;;;0.80;99.90;0.60;101798.00;;;;4950169;28;87999;-71
2023/11/22 08:45:31;;;;;;;11.67;6.57;;;1.70;99.90;0.60;101789.00;;;;4947957;28;88567;-70
2023/11/22 08:47:57;;;;;;;8.93;6.50;;;0.90;99.90;0.70;101788.00;;;;4949518;28;89187;-71
2023/11/22 08:50:23;;;;;;;11.53;5.83;;;0.90;99.90;0.70;101794.00;;;;4933921;28;89903;-69
2023/11/22 08:52:52;;;;;;;10.70;6.37;;;1.00;99.90;0.80;101802.00;;;;4964579;28;111532;-68
2023/11/22 08:55:21;;;;;;;7.73;5.97;;;1.10;99.90;0.80;101800.00;;;;4957412;28;87934;-69
2023/11/22 08:57:48;;;;;;;6.13;4.17;;;1.10;99.90;0.80;101803.00;;;;4955406;28;88407;-69
2023/11/22 09:00:14;;;;;;;9.57;5.30;;;1.10;99.90;0.90;101786.00;;;;4949128;28;88802;-69
2023/11/22 09:02:40;;;;;;;7.03;4.93;;;1.20;99.90;1.00;101797.00;;;;4956697;28;87160;-70
2023/11/22 09:05:08;;;;;;;10.57;4.40;;;1.20;99.90;1.00;101787.00;;;;4951431;28;109728;-69
2023/11/22 09:07:35;;;;;;;6.73;5.40;;;1.20;99.90;1.00;101792.00;;;;4955578;28;88371;-70
2023/11/22 09:10:09;;;;;;;9.23;5.07;;;1.30;99.90;1.00;101785.00;;;;4965705;28;89298;-70
2023/11/22 09:12:44;;;;;;;10.70;5.20;;;1.30;99.90;1.00;101797.00;;;;4955706;28;88011;-71
2023/11/22 09:15:12;;;;;;;7.97;4.83;;;1.30;99.90;1.00;101796.00;;;;4954958;28;87629;-68
2023/11/22 09:17:43;;;;;;;6.87;4.83;;;1.30;99.90;1.00;101803.00;;;;4949869;28;89318;-69
2023/11/22 09:20:14;;;;;;;5.00;4.53;;;1.30;99.90;1.10;101798.00;;;;4953776;28;88873;-68
2023/11/22 09:22:48;;;;;;;8.80;5.80;;;1.30;99.90;1.10;101801.00;;;;4955442;28;88118;-69
2023/11/22 09:25:21;;;;;;;9.40;5.07;;;1.30;99.90;1.10;101793.00;;;;4950197;28;91272;-68
2023/11/22 09:27:51;;;;;;;6.67;4.53;;;1.40;99.90;1.10;101781.00;;;;4951708;28;87500;-69
2023/11/22 09:33:01;;;;;;;8.63;4.73;;;1.40;99.90;1.10;101769.00;;;;4949698;28;87821;-68
2023/11/22 09:35:29;;;;;;;8.50;5.30;;;1.30;99.90;1.10;101775.00;;;;4953541;28;89156;-70
2023/11/22 09:37:55;;;;;;;8.67;5.17;;;1.40;99.90;1.20;101772.00;;;;4956030;28;88152;-69
2023/11/22 09:40:22;;;;;;;4.87;3.77;;;2.20;99.90;1.20;101781.00;;;;4957994;28;88001;-70
2023/11/22 09:42:51;;;;;;;4.83;4.30;;;1.50;99.90;1.30;101776.00;;;;4957162;28;87837;-69
2023/11/22 09:45:21;;;;;;;6.37;5.27;;;1.50;99.90;1.30;101786.00;;;;4950559;28;88241;-68
2023/11/22 09:47:47;;;;;;;10.20;5.40;;;1.50;99.90;1.30;101794.00;;;;4952430;28;88916;-68
2023/11/22 09:50:29;;;;;;;5.87;4.83;;;1.60;99.90;1.30;101792.00;;;;4950846;28;88357;-67
2023/11/22 09:53:00;;;;;;;6.53;4.63;;;1.60;99.90;1.30;101784.00;;;;4952020;28;92122;-68
2023/11/22 09:55:29;;;;;;;6.77;4.83;;;1.60;99.90;1.30;101791.00;;;;4948070;28;99642;-69
2023/11/22 09:58:02;;;;;;;7.53;5.37;;;1.60;99.90;1.30;101783.00;;;;4953216;28;93187;-68
2023/11/22 10:00:30;;;;;;;6.80;4.53;;;1.60;99.90;1.20;101789.00;;;;4950901;28;88742;-68
2023/11/22 10:02:57;;;;;;;8.33;5.63;;;1.50;99.90;1.20;101810.00;;;;4948124;28;87841;-71
2023/11/22 10:05:24;;;;;;;14.23;5.63;;;1.50;99.90;1.20;101809.00;;;;4954829;28;89263;-69
2023/11/22 10:07:49;;;;;;;7.73;4.63;;;1.50;99.90;1.30;101815.00;;;;4950336;28;105090;-69
2023/11/22 10:10:18;;;;;;;6.93;5.07;;;1.50;99.90;1.30;101810.00;;;;4949039;28;117165;-69
2023/11/22 10:12:44;;;;;;;8.27;4.57;;;1.60;99.90;1.40;101812.00;;;;4952701;28;88165;-69
2023/11/22 10:15:13;;;;;;;7.90;6.20;;;1.70;99.90;1.40;101803.00;;;;4952136;28;87951;-69
2023/11/22 10:17:40;;;;;;;6.43;5.13;;;1.70;99.90;1.40;101795.00;;;;4954015;28;87910;-68
2023/11/22 10:20:11;;;;;;;7.37;4.10;;;1.70;99.90;1.50;101798.00;;;;4952863;28;88825;-70
2023/11/22 10:22:50;;;;;;;7.27;3.97;;;1.70;99.90;1.50;101789.00;;;;4950309;28;88058;-70
2023/11/22 10:25:18;;;;;;;7.83;4.53;;;1.80;99.90;1.60;101777.00;;;;4952534;28;89948;-70
2023/11/22 10:27:46;;;;;;;5.13;4.33;;;1.90;99.90;1.60;101769.00;;;;4948189;28;88167;-69
2023/11/22 10:30:12;;;;;;;7.87;4.87;;;1.80;99.90;1.80;101778.00;;;;4955615;28;87941;-69
2023/11/22 10:32:38;;;;;;;6.77;4.77;;;2.40;99.90;1.90;101769.00;;;;4953957;28;87823;-68
2023/11/22 10:35:07;;;;;;;15.03;5.67;;;2.10;99.90;2.00;101771.00;;;;4953413;28;87824;-67
2023/11/22 10:37:34;;;;;;;10.20;5.47;;;2.20;99.90;2.30;101776.00;;;;4955530;28;89631;-68
2023/11/22 10:40:00;;;;;;;3.90;3.37;;;2.50;99.90;2.40;101782.00;;;;4956063;28;87785;-66
2023/11/22 10:42:27;;;;;;;6.57;4.30;;;2.60;99.90;2.50;101778.00;;;;4957209;28;109587;-67
2023/11/22 10:44:58;;;;;;;5.87;4.20;;;2.70;99.90;2.50;101773.00;;;;4956714;28;87658;-68
2023/11/22 10:47:26;;;;;;;3.97;3.37;;;2.70;99.90;2.50;101774.00;;;;4942567;28;90288;-69
2023/11/22 10:49:52;;;;;;;7.27;4.57;;;2.90;99.90;2.50;101786.00;;;;4950913;28;103532;-68
2023/11/22 10:52:18;;;;;;;5.40;3.30;;;2.70;99.90;2.50;101793.00;;;;4953950;28;89192;-68
2023/11/22 10:54:55;;;;;;;5.07;4.33;;;2.70;99.90;2.50;101808.00;;;;4952439;28;88159;-68
2023/11/22 10:57:26;;;;;;;4.30;3.47;;;2.80;99.90;2.60;101809.00;;;;4950390;28;110438;-68
2023/11/22 10:59:55;;;;;;;5.20;3.60;;;3.20;99.90;2.60;101807.00;;;;4949414;28;88386;-69
2023/11/22 11:02:24;;;;;;;6.70;5.03;;;2.70;99.90;2.70;101837.00;;;;4966451;28;88172;-70